sensor_id;sensor_type;location;lat;lon;timestamp;P1;durP1;ratioP1;P2;durP2;ratioP2
20621;SDS011;10470;42.670;23.354;2023-07-22T00:02:22;11.10;;;6.13;;
20621;SDS011;10470;42.670;23.354;2023-07-22T00:04:48;11.90;;;6.17;;
20621;SDS011;10470;42.670;23.354;2023-07-22T00:07:14;14.80;;;6.37;;
20621;SDS011;10470;42.670;23.354;2023-07-22T00:09:40;10.80;;;5.87;;
20621;SDS011;10470;42.670;23.354;2023-07-22T00:12:07;9.83;;;6.30;;
20621;SDS011;10470;42.670;23.354;2023-07-22T00:14:33;11.43;;;6.53;;
20621;SDS011;10470;42.670;23.354;2023-07-22T00:16:59;9.00;;;5.63;;
20621;SDS011;10470;42.670;23.354;2023-07-22T00:19:25;12.93;;;5.73;;
20621;SDS011;10470;42.670;23.354;2023-07-22T00:21:50;11.70;;;6.20;;
20621;SDS011;10470;42.670;23.354;2023-07-22T00:24:17;12.67;;;6.50;;
20621;SDS011;10470;42.670;23.354;2023-07-22T00:26:43;10.03;;;6.00;;
20621;SDS011;10470;42.670;23.354;2023-07-22T00:29:08;12.93;;;6.03;;
20621;SDS011;10470;42.670;23.354;2023-07-22T00:31:34;12.57;;;6.33;;
20621;SDS011;10470;42.670;23.354;2023-07-22T00:33:59;10.67;;;6.33;;
20621;SDS011;10470;42.670;23.354;2023-07-22T00:36:25;8.93;;;5.83;;
20621;SDS011;10470;42.670;23.354;2023-07-22T00:38:50;13.00;;;6.27;;
20621;SDS011;10470;42.670;23.354;2023-07-22T00:41:17;9.00;;;6.13;;
20621;SDS011;10470;42.670;23.354;2023-07-22T00:43:43;12.83;;;5.90;;
20621;SDS011;10470;42.670;23.354;2023-07-22T00:46:09;12.07;;;6.40;;
20621;SDS011;10470;42.670;23.354;2023-07-22T00:48:34;10.67;;;6.10;;
20621;SDS011;10470;42.670;23.354;2023-07-22T00:51:01;11.10;;;6.30;;
20621;SDS011;10470;42.670;23.354;2023-07-22T00:53:26;11.63;;;6.03;;
20621;SDS011;10470;42.670;23.354;2023-07-22T00:55:52;12.70;;;6.47;;
20621;SDS011;10470;42.670;23.354;2023-07-22T00:58:20;12.37;;;6.97;;
20621;SDS011;10470;42.670;23.354;2023-07-22T01:00:45;9.53;;;6.60;;
20621;SDS011;10470;42.670;23.354;2023-07-22T01:03:11;10.30;;;6.40;;
20621;SDS011;10470;42.670;23.354;2023-07-22T01:05:38;14.23;;;7.83;;
20621;SDS011;10470;42.670;23.354;2023-07-22T01:08:04;14.23;;;7.40;;
20621;SDS011;10470;42.670;23.354;2023-07-22T01:10:31;13.27;;;7.37;;
20621;SDS011;10470;42.670;23.354;2023-07-22T01:12:56;11.03;;;7.10;;
20621;SDS011;10470;42.670;23.354;2023-07-22T01:15:22;12.30;;;6.43;;
20621;SDS011;10470;42.670;23.354;2023-07-22T01:17:48;12.80;;;6.70;;
20621;SDS011;10470;42.670;23.354;2023-07-22T01:20:15;11.03;;;6.30;;
20621;SDS011;10470;42.670;23.354;2023-07-22T01:22:41;13.83;;;6.53;;
20621;SDS011;10470;42.670;23.354;2023-07-22T01:25:08;10.93;;;6.43;;
20621;SDS011;10470;42.670;23.354;2023-07-22T01:27:34;14.00;;;6.63;;
20621;SDS011;10470;42.670;23.354;2023-07-22T01:30:00;13.83;;;6.53;;
20621;SDS011;10470;42.670;23.354;2023-07-22T01:32:27;10.67;;;6.63;;
20621;SDS011;10470;42.670;23.354;2023-07-22T01:34:53;9.00;;;5.67;;
20621;SDS011;10470;42.670;23.354;2023-07-22T01:37:18;14.13;;;6.83;;
20621;SDS011;10470;42.670;23.354;2023-07-22T01:39:44;12.57;;;7.17;;
20621;SDS011;10470;42.670;23.354;2023-07-22T01:42:09;9.87;;;6.33;;
20621;SDS011;10470;42.670;23.354;2023-07-22T01:44:35;11.27;;;6.03;;
20621;SDS011;10470;42.670;23.354;2023-07-22T01:47:03;8.77;;;6.13;;
20621;SDS011;10470;42.670;23.354;2023-07-22T01:49:29;9.40;;;6.67;;
20621;SDS011;10470;42.670;23.354;2023-07-22T01:51:55;11.80;;;6.37;;
20621;SDS011;10470;42.670;23.354;2023-07-22T01:54:21;10.07;;;6.10;;
20621;SDS011;10470;42.670;23.354;2023-07-22T01:56:46;7.93;;;5.90;;
20621;SDS011;10470;42.670;23.354;2023-07-22T01:59:12;9.70;;;6.00;;
20621;SDS011;10470;42.670;23.354;2023-07-22T02:01:37;10.30;;;6.10;;
20621;SDS011;10470;42.670;23.354;2023-07-22T02:04:03;8.80;;;6.00;;
20621;SDS011;10470;42.670;23.354;2023-07-22T02:06:29;9.53;;;6.03;;
20621;SDS011;10470;42.670;23.354;2023-07-22T02:08:54;11.00;;;6.07;;
20621;SDS011;10470;42.670;23.354;2023-07-22T02:11:21;8.27;;;5.90;;
20621;SDS011;10470;42.670;23.354;2023-07-22T02:13:46;10.73;;;5.90;;
20621;SDS011;10470;42.670;23.354;2023-07-22T02:16:12;11.37;;;6.00;;
20621;SDS011;10470;42.670;23.354;2023-07-22T02:18:37;8.17;;;6.20;;
20621;SDS011;10470;42.670;23.354;2023-07-22T02:21:03;9.57;;;6.27;;
20621;SDS011;10470;42.670;23.354;2023-07-22T02:23:28;11.80;;;6.17;;
20621;SDS011;10470;42.670;23.354;2023-07-22T02:25:54;10.80;;;6.03;;
20621;SDS011;10470;42.670;23.354;2023-07-22T02:28:20;9.80;;;6.43;;
20621;SDS011;10470;42.670;23.354;2023-07-22T02:30:48;7.93;;;5.90;;
20621;SDS011;10470;42.670;23.354;2023-07-22T02:33:14;10.83;;;6.10;;
20621;SDS011;10470;42.670;23.354;2023-07-22T02:35:40;10.70;;;6.43;;
20621;SDS011;10470;42.670;23.354;2023-07-22T02:38:06;10.03;;;5.93;;
20621;SDS011;10470;42.670;23.354;2023-07-22T02:40:36;9.30;;;6.33;;
20621;SDS011;10470;42.670;23.354;2023-07-22T02:43:02;12.50;;;5.97;;
20621;SDS011;10470;42.670;23.354;2023-07-22T02:45:28;10.80;;;6.50;;
20621;SDS011;10470;42.670;23.354;2023-07-22T02:47:54;8.60;;;5.77;;
20621;SDS011;10470;42.670;23.354;2023-07-22T02:50:19;9.50;;;5.80;;
20621;SDS011;10470;42.670;23.354;2023-07-22T02:52:45;8.60;;;6.17;;
20621;SDS011;10470;42.670;23.354;2023-07-22T02:55:11;12.00;;;6.77;;
20621;SDS011;10470;42.670;23.354;2023-07-22T02:57:43;10.37;;;6.70;;
20621;SDS011;10470;42.670;23.354;2023-07-22T03:00:11;6.90;;;6.20;;
20621;SDS011;10470;42.670;23.354;2023-07-22T03:02:38;9.60;;;6.13;;
20621;SDS011;10470;42.670;23.354;2023-07-22T03:05:07;10.17;;;6.40;;
20621;SDS011;10470;42.670;23.354;2023-07-22T03:07:36;8.37;;;6.50;;
20621;SDS011;10470;42.670;23.354;2023-07-22T03:10:03;11.67;;;7.20;;
20621;SDS011;10470;42.670;23.354;2023-07-22T03:12:30;13.57;;;7.40;;
20621;SDS011;10470;42.670;23.354;2023-07-22T03:14:55;11.90;;;6.60;;
20621;SDS011;10470;42.670;23.354;2023-07-22T03:17:21;10.23;;;7.87;;
20621;SDS011;10470;42.670;23.354;2023-07-22T03:19:46;13.57;;;8.30;;
20621;SDS011;10470;42.670;23.354;2023-07-22T03:22:15;16.93;;;8.50;;
20621;SDS011;10470;42.670;23.354;2023-07-22T03:24:44;9.67;;;6.47;;
20621;SDS011;10470;42.670;23.354;2023-07-22T03:27:10;10.27;;;6.80;;
20621;SDS011;10470;42.670;23.354;2023-07-22T03:29:37;9.70;;;6.70;;
20621;SDS011;10470;42.670;23.354;2023-07-22T03:32:03;10.57;;;6.80;;
20621;SDS011;10470;42.670;23.354;2023-07-22T03:34:30;8.37;;;6.70;;
20621;SDS011;10470;42.670;23.354;2023-07-22T03:36:56;8.73;;;6.43;;
20621;SDS011;10470;42.670;23.354;2023-07-22T03:39:22;8.20;;;6.67;;
20621;SDS011;10470;42.670;23.354;2023-07-22T03:41:48;10.23;;;6.67;;
20621;SDS011;10470;42.670;23.354;2023-07-22T03:44:13;9.67;;;6.67;;
20621;SDS011;10470;42.670;23.354;2023-07-22T03:46:39;11.83;;;7.40;;
20621;SDS011;10470;42.670;23.354;2023-07-22T03:49:05;13.80;;;7.33;;
20621;SDS011;10470;42.670;23.354;2023-07-22T03:51:31;12.77;;;6.63;;
20621;SDS011;10470;42.670;23.354;2023-07-22T03:53:56;11.87;;;7.20;;
20621;SDS011;10470;42.670;23.354;2023-07-22T03:56:22;15.10;;;8.67;;
20621;SDS011;10470;42.670;23.354;2023-07-22T03:58:49;9.30;;;6.50;;
20621;SDS011;10470;42.670;23.354;2023-07-22T04:01:17;12.93;;;7.40;;
20621;SDS011;10470;42.670;23.354;2023-07-22T04:03:43;13.87;;;7.50;;
20621;SDS011;10470;42.670;23.354;2023-07-22T04:06:08;11.80;;;7.53;;
20621;SDS011;10470;42.670;23.354;2023-07-22T04:08:34;13.43;;;8.80;;
20621;SDS011;10470;42.670;23.354;2023-07-22T04:10:59;16.13;;;10.27;;
20621;SDS011;10470;42.670;23.354;2023-07-22T04:13:25;16.83;;;10.00;;
20621;SDS011;10470;42.670;23.354;2023-07-22T04:15:51;19.80;;;10.47;;
20621;SDS011;10470;42.670;23.354;2023-07-22T04:18:17;13.97;;;8.20;;
20621;SDS011;10470;42.670;23.354;2023-07-22T04:20:44;12.97;;;8.13;;
20621;SDS011;10470;42.670;23.354;2023-07-22T04:23:10;10.33;;;7.47;;
20621;SDS011;10470;42.670;23.354;2023-07-22T04:25:40;12.93;;;7.60;;
20621;SDS011;10470;42.670;23.354;2023-07-22T04:28:06;12.47;;;8.33;;
20621;SDS011;10470;42.670;23.354;2023-07-22T04:30:32;10.00;;;7.50;;
20621;SDS011;10470;42.670;23.354;2023-07-22T04:32:58;13.87;;;8.17;;
20621;SDS011;10470;42.670;23.354;2023-07-22T04:35:23;12.57;;;7.73;;
20621;SDS011;10470;42.670;23.354;2023-07-22T04:37:49;12.40;;;7.50;;
20621;SDS011;10470;42.670;23.354;2023-07-22T04:40:14;11.00;;;7.83;;
20621;SDS011;10470;42.670;23.354;2023-07-22T04:42:41;12.03;;;8.43;;
20621;SDS011;10470;42.670;23.354;2023-07-22T04:45:08;12.90;;;8.70;;
20621;SDS011;10470;42.670;23.354;2023-07-22T04:47:37;11.57;;;8.40;;
20621;SDS011;10470;42.670;23.354;2023-07-22T04:50:09;12.23;;;8.73;;
20621;SDS011;10470;42.670;23.354;2023-07-22T04:52:35;12.93;;;8.60;;
20621;SDS011;10470;42.670;23.354;2023-07-22T04:55:02;14.33;;;10.57;;
20621;SDS011;10470;42.670;23.354;2023-07-22T04:57:41;14.13;;;9.13;;
20621;SDS011;10470;42.670;23.354;2023-07-22T05:00:10;16.33;;;10.47;;
20621;SDS011;10470;42.670;23.354;2023-07-22T05:02:41;19.73;;;9.73;;
20621;SDS011;10470;42.670;23.354;2023-07-22T05:05:14;16.37;;;9.53;;
20621;SDS011;10470;42.670;23.354;2023-07-22T05:07:40;14.60;;;10.17;;
20621;SDS011;10470;42.670;23.354;2023-07-22T05:10:06;14.17;;;10.00;;
20621;SDS011;10470;42.670;23.354;2023-07-22T05:12:37;12.97;;;9.60;;
20621;SDS011;10470;42.670;23.354;2023-07-22T05:15:03;15.17;;;9.83;;
20621;SDS011;10470;42.670;23.354;2023-07-22T05:17:29;17.17;;;10.40;;
20621;SDS011;10470;42.670;23.354;2023-07-22T05:19:56;14.50;;;9.33;;
20621;SDS011;10470;42.670;23.354;2023-07-22T05:22:22;15.83;;;9.33;;
20621;SDS011;10470;42.670;23.354;2023-07-22T05:24:48;18.93;;;8.90;;
20621;SDS011;10470;42.670;23.354;2023-07-22T05:27:13;14.73;;;10.23;;
20621;SDS011;10470;42.670;23.354;2023-07-22T05:29:38;17.10;;;12.93;;
20621;SDS011;10470;42.670;23.354;2023-07-22T05:32:04;17.63;;;11.00;;
20621;SDS011;10470;42.670;23.354;2023-07-22T05:34:30;14.73;;;9.33;;
20621;SDS011;10470;42.670;23.354;2023-07-22T05:36:55;14.23;;;9.60;;
20621;SDS011;10470;42.670;23.354;2023-07-22T05:39:21;13.83;;;8.87;;
20621;SDS011;10470;42.670;23.354;2023-07-22T05:41:46;16.07;;;9.20;;
20621;SDS011;10470;42.670;23.354;2023-07-22T05:44:11;11.87;;;8.33;;
20621;SDS011;10470;42.670;23.354;2023-07-22T05:46:37;12.97;;;8.70;;
20621;SDS011;10470;42.670;23.354;2023-07-22T05:49:03;11.30;;;8.63;;
20621;SDS011;10470;42.670;23.354;2023-07-22T05:51:29;13.70;;;8.17;;
20621;SDS011;10470;42.670;23.354;2023-07-22T05:53:54;12.63;;;8.90;;
20621;SDS011;10470;42.670;23.354;2023-07-22T05:56:20;12.63;;;9.43;;
20621;SDS011;10470;42.670;23.354;2023-07-22T05:58:46;14.83;;;9.23;;
20621;SDS011;10470;42.670;23.354;2023-07-22T06:01:11;13.47;;;8.97;;
20621;SDS011;10470;42.670;23.354;2023-07-22T06:03:37;12.23;;;8.70;;
20621;SDS011;10470;42.670;23.354;2023-07-22T06:06:03;16.03;;;9.57;;
20621;SDS011;10470;42.670;23.354;2023-07-22T06:08:29;15.63;;;9.13;;
20621;SDS011;10470;42.670;23.354;2023-07-22T06:10:55;11.53;;;8.97;;
20621;SDS011;10470;42.670;23.354;2023-07-22T06:13:21;13.70;;;9.40;;
20621;SDS011;10470;42.670;23.354;2023-07-22T06:15:47;12.37;;;8.80;;
20621;SDS011;10470;42.670;23.354;2023-07-22T06:18:12;13.30;;;9.07;;
20621;SDS011;10470;42.670;23.354;2023-07-22T06:20:38;17.80;;;9.17;;
20621;SDS011;10470;42.670;23.354;2023-07-22T06:23:03;15.43;;;9.20;;
20621;SDS011;10470;42.670;23.354;2023-07-22T06:25:29;14.80;;;8.87;;
20621;SDS011;10470;42.670;23.354;2023-07-22T06:27:55;11.53;;;8.10;;
20621;SDS011;10470;42.670;23.354;2023-07-22T06:30:20;15.93;;;8.37;;
20621;SDS011;10470;42.670;23.354;2023-07-22T06:32:46;10.47;;;7.77;;
20621;SDS011;10470;42.670;23.354;2023-07-22T06:35:11;11.20;;;8.50;;
20621;SDS011;10470;42.670;23.354;2023-07-22T06:37:37;13.07;;;8.57;;
20621;SDS011;10470;42.670;23.354;2023-07-22T06:40:02;10.40;;;8.00;;
20621;SDS011;10470;42.670;23.354;2023-07-22T06:42:29;13.83;;;7.80;;
20621;SDS011;10470;42.670;23.354;2023-07-22T06:44:54;10.47;;;8.10;;
20621;SDS011;10470;42.670;23.354;2023-07-22T06:47:20;12.30;;;7.77;;
20621;SDS011;10470;42.670;23.354;2023-07-22T06:49:46;11.73;;;8.00;;
20621;SDS011;10470;42.670;23.354;2023-07-22T06:52:11;10.70;;;8.43;;
20621;SDS011;10470;42.670;23.354;2023-07-22T06:54:37;12.47;;;7.77;;
20621;SDS011;10470;42.670;23.354;2023-07-22T06:57:02;12.40;;;8.10;;
20621;SDS011;10470;42.670;23.354;2023-07-22T06:59:28;11.10;;;8.57;;
20621;SDS011;10470;42.670;23.354;2023-07-22T07:01:54;11.93;;;8.23;;
20621;SDS011;10470;42.670;23.354;2023-07-22T07:04:19;12.43;;;8.60;;
20621;SDS011;10470;42.670;23.354;2023-07-22T07:06:45;10.23;;;7.67;;
20621;SDS011;10470;42.670;23.354;2023-07-22T07:09:11;12.07;;;7.90;;
20621;SDS011;10470;42.670;23.354;2023-07-22T07:11:37;12.63;;;7.93;;
20621;SDS011;10470;42.670;23.354;2023-07-22T07:14:03;10.50;;;8.00;;
20621;SDS011;10470;42.670;23.354;2023-07-22T07:16:29;13.13;;;8.07;;
20621;SDS011;10470;42.670;23.354;2023-07-22T07:18:56;15.77;;;8.30;;
20621;SDS011;10470;42.670;23.354;2023-07-22T07:21:23;11.30;;;8.17;;
20621;SDS011;10470;42.670;23.354;2023-07-22T07:23:49;12.80;;;8.33;;
20621;SDS011;10470;42.670;23.354;2023-07-22T07:26:14;16.23;;;8.83;;
20621;SDS011;10470;42.670;23.354;2023-07-22T07:28:40;11.87;;;8.40;;
20621;SDS011;10470;42.670;23.354;2023-07-22T07:31:05;12.67;;;8.30;;
20621;SDS011;10470;42.670;23.354;2023-07-22T07:33:31;13.07;;;7.80;;
20621;SDS011;10470;42.670;23.354;2023-07-22T07:35:57;13.63;;;8.00;;
20621;SDS011;10470;42.670;23.354;2023-07-22T07:38:23;14.97;;;8.47;;
20621;SDS011;10470;42.670;23.354;2023-07-22T07:41:07;11.23;;;8.63;;
20621;SDS011;10470;42.670;23.354;2023-07-22T07:43:40;12.00;;;8.40;;
20621;SDS011;10470;42.670;23.354;2023-07-22T07:48:46;14.63;;;8.63;;
20621;SDS011;10470;42.670;23.354;2023-07-22T07:51:13;13.50;;;9.07;;
20621;SDS011;10470;42.670;23.354;2023-07-22T07:53:39;12.20;;;8.70;;
20621;SDS011;10470;42.670;23.354;2023-07-22T07:56:06;15.33;;;8.77;;
20621;SDS011;10470;42.670;23.354;2023-07-22T07:58:32;11.43;;;8.70;;
20621;SDS011;10470;42.670;23.354;2023-07-22T08:00:58;11.90;;;9.33;;
20621;SDS011;10470;42.670;23.354;2023-07-22T08:03:23;13.33;;;8.70;;
20621;SDS011;10470;42.670;23.354;2023-07-22T08:05:48;17.80;;;9.37;;
20621;SDS011;10470;42.670;23.354;2023-07-22T08:08:14;13.93;;;9.33;;
20621;SDS011;10470;42.670;23.354;2023-07-22T08:10:39;17.50;;;8.83;;
20621;SDS011;10470;42.670;23.354;2023-07-22T08:13:05;12.83;;;9.00;;
20621;SDS011;10470;42.670;23.354;2023-07-22T08:15:31;16.37;;;9.03;;
20621;SDS011;10470;42.670;23.354;2023-07-22T08:17:56;17.13;;;9.27;;
20621;SDS011;10470;42.670;23.354;2023-07-22T08:20:22;13.40;;;9.13;;
20621;SDS011;10470;42.670;23.354;2023-07-22T08:22:47;17.60;;;9.73;;
20621;SDS011;10470;42.670;23.354;2023-07-22T08:25:13;12.83;;;8.77;;
20621;SDS011;10470;42.670;23.354;2023-07-22T08:27:38;15.87;;;9.30;;
20621;SDS011;10470;42.670;23.354;2023-07-22T08:30:04;15.57;;;9.30;;
20621;SDS011;10470;42.670;23.354;2023-07-22T08:32:30;16.13;;;9.43;;
20621;SDS011;10470;42.670;23.354;2023-07-22T08:34:55;15.37;;;9.07;;
20621;SDS011;10470;42.670;23.354;2023-07-22T08:37:21;16.17;;;9.93;;
20621;SDS011;10470;42.670;23.354;2023-07-22T08:39:46;14.37;;;9.33;;
20621;SDS011;10470;42.670;23.354;2023-07-22T08:42:12;14.20;;;9.32;;
20621;SDS011;10470;42.670;23.354;2023-07-22T08:44:41;17.60;;;9.37;;
20621;SDS011;10470;42.670;23.354;2023-07-22T08:47:09;17.52;;;9.63;;
20621;SDS011;10470;42.670;23.354;2023-07-22T08:49:40;15.68;;;9.63;;
20621;SDS011;10470;42.670;23.354;2023-07-22T08:52:11;14.93;;;9.07;;
20621;SDS011;10470;42.670;23.354;2023-07-22T08:54:39;12.37;;;9.43;;
20621;SDS011;10470;42.670;23.354;2023-07-22T08:57:05;17.80;;;9.87;;
20621;SDS011;10470;42.670;23.354;2023-07-22T08:59:33;15.25;;;9.43;;
20621;SDS011;10470;42.670;23.354;2023-07-22T09:01:59;10.77;;;8.50;;
20621;SDS011;10470;42.670;23.354;2023-07-22T09:04:25;14.65;;;9.13;;
20621;SDS011;10470;42.670;23.354;2023-07-22T09:06:50;12.85;;;8.57;;
20621;SDS011;10470;42.670;23.354;2023-07-22T09:09:16;13.55;;;9.15;;
20621;SDS011;10470;42.670;23.354;2023-07-22T09:11:42;14.93;;;8.95;;
20621;SDS011;10470;42.670;23.354;2023-07-22T09:14:10;16.75;;;9.25;;
20621;SDS011;10470;42.670;23.354;2023-07-22T09:16:37;15.30;;;9.15;;
20621;SDS011;10470;42.670;23.354;2023-07-22T09:19:03;14.18;;;9.48;;
20621;SDS011;10470;42.670;23.354;2023-07-22T09:21:30;16.80;;;9.03;;
20621;SDS011;10470;42.670;23.354;2023-07-22T09:23:55;15.30;;;9.23;;
20621;SDS011;10470;42.670;23.354;2023-07-22T09:26:21;18.20;;;9.48;;
20621;SDS011;10470;42.670;23.354;2023-07-22T09:28:47;17.20;;;9.13;;
20621;SDS011;10470;42.670;23.354;2023-07-22T09:31:13;16.35;;;9.23;;
20621;SDS011;10470;42.670;23.354;2023-07-22T09:33:38;17.60;;;9.25;;
20621;SDS011;10470;42.670;23.354;2023-07-22T09:36:04;15.77;;;9.30;;
20621;SDS011;10470;42.670;23.354;2023-07-22T09:38:29;12.73;;;8.68;;
20621;SDS011;10470;42.670;23.354;2023-07-22T09:40:55;13.38;;;9.32;;
20621;SDS011;10470;42.670;23.354;2023-07-22T09:43:21;14.23;;;9.32;;
20621;SDS011;10470;42.670;23.354;2023-07-22T09:45:48;19.13;;;9.13;;
20621;SDS011;10470;42.670;23.354;2023-07-22T09:48:13;16.50;;;9.18;;
20621;SDS011;10470;42.670;23.354;2023-07-22T09:50:39;14.65;;;8.43;;
20621;SDS011;10470;42.670;23.354;2023-07-22T09:53:05;16.60;;;9.40;;
20621;SDS011;10470;42.670;23.354;2023-07-22T09:55:32;14.23;;;8.60;;
20621;SDS011;10470;42.670;23.354;2023-07-22T09:57:59;13.27;;;8.95;;
20621;SDS011;10470;42.670;23.354;2023-07-22T10:00:27;16.48;;;8.43;;
20621;SDS011;10470;42.670;23.354;2023-07-22T10:02:56;15.55;;;8.57;;
20621;SDS011;10470;42.670;23.354;2023-07-22T10:05:22;14.93;;;8.57;;
20621;SDS011;10470;42.670;23.354;2023-07-22T10:07:51;19.13;;;9.23;;
20621;SDS011;10470;42.670;23.354;2023-07-22T10:10:18;14.00;;;9.10;;
20621;SDS011;10470;42.670;23.354;2023-07-22T10:12:45;15.85;;;11.65;;
20621;SDS011;10470;42.670;23.354;2023-07-22T10:15:13;19.55;;;9.93;;
20621;SDS011;10470;42.670;23.354;2023-07-22T10:17:40;21.55;;;8.77;;
20621;SDS011;10470;42.670;23.354;2023-07-22T10:20:10;19.08;;;8.63;;
20621;SDS011;10470;42.670;23.354;2023-07-22T10:22:43;15.55;;;7.95;;
20621;SDS011;10470;42.670;23.354;2023-07-22T10:25:19;19.95;;;8.48;;
20621;SDS011;10470;42.670;23.354;2023-07-22T10:27:46;18.05;;;8.65;;
20621;SDS011;10470;42.670;23.354;2023-07-22T10:30:13;17.27;;;8.32;;
20621;SDS011;10470;42.670;23.354;2023-07-22T10:32:41;18.20;;;8.65;;
20621;SDS011;10470;42.670;23.354;2023-07-22T10:35:09;15.85;;;8.18;;
20621;SDS011;10470;42.670;23.354;2023-07-22T10:37:35;17.23;;;8.52;;
20621;SDS011;10470;42.670;23.354;2023-07-22T10:40:18;15.95;;;9.07;;
20621;SDS011;10470;42.670;23.354;2023-07-22T10:45:23;19.75;;;7.90;;
20621;SDS011;10470;42.670;23.354;2023-07-22T10:47:59;17.52;;;7.40;;
20621;SDS011;10470;42.670;23.354;2023-07-22T10:50:37;17.85;;;6.85;;
20621;SDS011;10470;42.670;23.354;2023-07-22T10:53:10;22.17;;;6.93;;
20621;SDS011;10470;42.670;23.354;2023-07-22T11:09:32;17.27;;;4.97;;
20621;SDS011;10470;42.670;23.354;2023-07-22T11:11:58;21.92;;;6.20;;
20621;SDS011;10470;42.670;23.354;2023-07-22T11:14:25;18.20;;;5.88;;
20621;SDS011;10470;42.670;23.354;2023-07-22T11:16:52;16.45;;;5.93;;
20621;SDS011;10470;42.670;23.354;2023-07-22T11:19:18;26.60;;;5.72;;
20621;SDS011;10470;42.670;23.354;2023-07-22T11:21:46;23.42;;;6.43;;
20621;SDS011;10470;42.670;23.354;2023-07-22T11:24:12;24.98;;;6.75;;
20621;SDS011;10470;42.670;23.354;2023-07-22T11:26:38;17.25;;;6.20;;
20621;SDS011;10470;42.670;23.354;2023-07-22T11:29:06;20.05;;;6.30;;
20621;SDS011;10470;42.670;23.354;2023-07-22T11:31:34;21.88;;;5.50;;
20621;SDS011;10470;42.670;23.354;2023-07-22T11:34:08;22.08;;;6.13;;
20621;SDS011;10470;42.670;23.354;2023-07-22T11:36:46;22.10;;;5.80;;
20621;SDS011;10470;42.670;23.354;2023-07-22T11:39:14;25.50;;;6.15;;
20621;SDS011;10470;42.670;23.354;2023-07-22T11:41:41;27.05;;;6.68;;
20621;SDS011;10470;42.670;23.354;2023-07-22T11:44:08;18.23;;;5.93;;
20621;SDS011;10470;42.670;23.354;2023-07-22T11:52:01;23.50;;;5.75;;
20621;SDS011;10470;42.670;23.354;2023-07-22T11:54:29;23.90;;;6.82;;
20621;SDS011;10470;42.670;23.354;2023-07-22T11:56:55;25.20;;;7.00;;
20621;SDS011;10470;42.670;23.354;2023-07-22T11:59:34;19.13;;;6.18;;
20621;SDS011;10470;42.670;23.354;2023-07-22T12:02:02;20.27;;;6.15;;
20621;SDS011;10470;42.670;23.354;2023-07-22T12:04:30;20.15;;;6.55;;
20621;SDS011;10470;42.670;23.354;2023-07-22T12:06:57;20.60;;;6.68;;
20621;SDS011;10470;42.670;23.354;2023-07-22T12:09:22;24.55;;;5.80;;
20621;SDS011;10470;42.670;23.354;2023-07-22T12:11:49;22.42;;;6.47;;
20621;SDS011;10470;42.670;23.354;2023-07-22T12:14:20;20.00;;;5.53;;
20621;SDS011;10470;42.670;23.354;2023-07-22T12:16:46;17.80;;;5.90;;
20621;SDS011;10470;42.670;23.354;2023-07-22T12:19:12;18.25;;;5.88;;
20621;SDS011;10470;42.670;23.354;2023-07-22T12:21:38;17.98;;;5.72;;
20621;SDS011;10470;42.670;23.354;2023-07-22T12:24:03;26.45;;;6.70;;
20621;SDS011;10470;42.670;23.354;2023-07-22T12:26:31;18.15;;;6.07;;
20621;SDS011;10470;42.670;23.354;2023-07-22T12:28:57;18.83;;;5.53;;
20621;SDS011;10470;42.670;23.354;2023-07-22T12:31:22;20.65;;;5.85;;
20621;SDS011;10470;42.670;23.354;2023-07-22T12:33:48;24.27;;;6.28;;
20621;SDS011;10470;42.670;23.354;2023-07-22T12:36:13;21.27;;;6.07;;
20621;SDS011;10470;42.670;23.354;2023-07-22T12:38:39;21.50;;;6.60;;
20621;SDS011;10470;42.670;23.354;2023-07-22T12:41:04;21.65;;;6.40;;
20621;SDS011;10470;42.670;23.354;2023-07-22T12:43:30;17.83;;;6.15;;
20621;SDS011;10470;42.670;23.354;2023-07-22T12:45:55;22.15;;;6.38;;
20621;SDS011;10470;42.670;23.354;2023-07-22T12:48:21;25.33;;;6.00;;
20621;SDS011;10470;42.670;23.354;2023-07-22T12:50:48;24.13;;;6.60;;
20621;SDS011;10470;42.670;23.354;2023-07-22T12:53:13;29.08;;;6.50;;
20621;SDS011;10470;42.670;23.354;2023-07-22T12:55:39;20.67;;;5.97;;
20621;SDS011;10470;42.670;23.354;2023-07-22T12:58:04;21.55;;;5.95;;
20621;SDS011;10470;42.670;23.354;2023-07-22T13:00:30;22.75;;;5.90;;
20621;SDS011;10470;42.670;23.354;2023-07-22T13:02:56;20.30;;;5.93;;
20621;SDS011;10470;42.670;23.354;2023-07-22T13:05:22;19.60;;;6.32;;
20621;SDS011;10470;42.670;23.354;2023-07-22T13:07:47;17.00;;;5.70;;
20621;SDS011;10470;42.670;23.354;2023-07-22T13:10:15;21.10;;;5.75;;
20621;SDS011;10470;42.670;23.354;2023-07-22T13:12:45;22.48;;;6.38;;
20621;SDS011;10470;42.670;23.354;2023-07-22T13:15:11;24.02;;;6.13;;
20621;SDS011;10470;42.670;23.354;2023-07-22T13:17:36;17.95;;;5.47;;
20621;SDS011;10470;42.670;23.354;2023-07-22T13:20:02;18.58;;;5.60;;
20621;SDS011;10470;42.670;23.354;2023-07-22T13:22:32;20.15;;;5.72;;
20621;SDS011;10470;42.670;23.354;2023-07-22T13:24:58;24.40;;;5.82;;
20621;SDS011;10470;42.670;23.354;2023-07-22T13:27:23;24.85;;;5.93;;
20621;SDS011;10470;42.670;23.354;2023-07-22T13:29:49;18.30;;;5.65;;
20621;SDS011;10470;42.670;23.354;2023-07-22T13:32:14;22.75;;;5.68;;
20621;SDS011;10470;42.670;23.354;2023-07-22T13:34:40;19.00;;;6.13;;
20621;SDS011;10470;42.670;23.354;2023-07-22T13:37:05;20.33;;;6.13;;
20621;SDS011;10470;42.670;23.354;2023-07-22T13:39:31;18.90;;;5.43;;
20621;SDS011;10470;42.670;23.354;2023-07-22T13:41:57;21.95;;;5.80;;
20621;SDS011;10470;42.670;23.354;2023-07-22T13:44:22;25.08;;;6.50;;
20621;SDS011;10470;42.670;23.354;2023-07-22T13:46:47;24.30;;;6.28;;
20621;SDS011;10470;42.670;23.354;2023-07-22T13:49:13;22.40;;;6.13;;
20621;SDS011;10470;42.670;23.354;2023-07-22T13:51:40;27.58;;;6.20;;
20621;SDS011;10470;42.670;23.354;2023-07-22T13:54:06;18.73;;;5.90;;
20621;SDS011;10470;42.670;23.354;2023-07-22T13:56:31;20.92;;;6.13;;
20621;SDS011;10470;42.670;23.354;2023-07-22T13:58:57;23.73;;;5.30;;
20621;SDS011;10470;42.670;23.354;2023-07-22T14:01:24;22.25;;;5.63;;
20621;SDS011;10470;42.670;23.354;2023-07-22T14:03:49;22.83;;;5.90;;
20621;SDS011;10470;42.670;23.354;2023-07-22T14:06:15;22.60;;;6.15;;
20621;SDS011;10470;42.670;23.354;2023-07-22T14:08:41;24.63;;;6.15;;
20621;SDS011;10470;42.670;23.354;2023-07-22T14:11:07;18.70;;;5.72;;
20621;SDS011;10470;42.670;23.354;2023-07-22T14:13:33;17.75;;;5.88;;
20621;SDS011;10470;42.670;23.354;2023-07-22T14:15:58;26.75;;;5.93;;
20621;SDS011;10470;42.670;23.354;2023-07-22T14:18:24;22.33;;;6.45;;
20621;SDS011;10470;42.670;23.354;2023-07-22T14:20:49;18.02;;;6.07;;
20621;SDS011;10470;42.670;23.354;2023-07-22T14:23:15;23.67;;;5.72;;
20621;SDS011;10470;42.670;23.354;2023-07-22T14:25:41;24.05;;;5.38;;
20621;SDS011;10470;42.670;23.354;2023-07-22T14:28:06;26.17;;;6.10;;
20621;SDS011;10470;42.670;23.354;2023-07-22T14:30:32;26.95;;;6.20;;
20621;SDS011;10470;42.670;23.354;2023-07-22T14:32:57;24.80;;;5.28;;
20621;SDS011;10470;42.670;23.354;2023-07-22T14:35:23;21.17;;;5.68;;
20621;SDS011;10470;42.670;23.354;2023-07-22T14:37:48;22.45;;;5.93;;
20621;SDS011;10470;42.670;23.354;2023-07-22T14:40:13;22.83;;;5.78;;
20621;SDS011;10470;42.670;23.354;2023-07-22T14:42:39;22.73;;;5.95;;
20621;SDS011;10470;42.670;23.354;2023-07-22T14:45:05;19.10;;;5.50;;